sensor_id;sensor_type;location;lat;lon;timestamp;P1;P2;P0
73565;PMS5003;61846;52.970;-3.168;2022-09-30T00:02:01;9;8;
73565;PMS5003;61846;52.970;-3.168;2022-09-30T00:04:27;11;4;
73565;PMS5003;61846;52.970;-3.168;2022-09-30T00:06:52;7;7;
73565;PMS5003;61846;52.970;-3.168;2022-09-30T00:09:18;7;7;
73565;PMS5003;61846;52.970;-3.168;2022-09-30T00:11:44;10;9;
73565;PMS5003;61846;52.970;-3.168;2022-09-30T00:14:11;10;9;
73565;PMS5003;61846;52.970;-3.168;2022-09-30T00:16:35;8;8;
73565;PMS5003;61846;52.970;-3.168;2022-09-30T00:19:00;6;5;
73565;PMS5003;61846;52.970;-3.168;2022-09-30T00:21:26;7;7;
73565;PMS5003;61846;52.970;-3.168;2022-09-30T00:23:51;6;5;
73565;PMS5003;61846;52.970;-3.168;2022-09-30T00:26:18;9;9;
73565;PMS5003;61846;52.970;-3.168;2022-09-30T00:28:42;8;8;
73565;PMS5003;61846;52.970;-3.168;2022-09-30T00:31:10;9;9;
73565;PMS5003;61846;52.970;-3.168;2022-09-30T00:33:33;15;7;
73565;PMS5003;61846;52.970;-3.168;2022-09-30T00:35:59;8;8;
73565;PMS5003;61846;52.970;-3.168;2022-09-30T00:38:24;11;10;
73565;PMS5003;61846;52.970;-3.168;2022-09-30T00:40:50;8;7;
73565;PMS5003;61846;52.970;-3.168;2022-09-30T00:43:16;9;9;
73565;PMS5003;61846;52.970;-3.168;2022-09-30T00:45:41;7;7;
73565;PMS5003;61846;52.970;-3.168;2022-09-30T00:48:07;8;8;
73565;PMS5003;61846;52.970;-3.168;2022-09-30T00:50:32;9;8;
73565;PMS5003;61846;52.970;-3.168;2022-09-30T00:52:59;9;9;
73565;PMS5003;61846;52.970;-3.168;2022-09-30T00:55:25;8;7;
73565;PMS5003;61846;52.970;-3.168;2022-09-30T00:57:47;7;6;
73565;PMS5003;61846;52.970;-3.168;2022-09-30T01:00:13;7;7;
73565;PMS5003;61846;52.970;-3.168;2022-09-30T01:02:39;8;8;
73565;PMS5003;61846;52.970;-3.168;2022-09-30T01:05:04;8;8;
73565;PMS5003;61846;52.970;-3.168;2022-09-30T01:07:30;10;10;
73565;PMS5003;61846;52.970;-3.168;2022-09-30T01:09:55;9;9;
73565;PMS5003;61846;52.970;-3.168;2022-09-30T01:12:21;8;8;
73565;PMS5003;61846;52.970;-3.168;2022-09-30T01:14:46;8;8;
73565;PMS5003;61846;52.970;-3.168;2022-09-30T01:17:13;9;7;
73565;PMS5003;61846;52.970;-3.168;2022-09-30T01:19:42;9;7;
73565;PMS5003;61846;52.970;-3.168;2022-09-30T01:22:06;9;9;
73565;PMS5003;61846;52.970;-3.168;2022-09-30T01:24:34;8;8;
73565;PMS5003;61846;52.970;-3.168;2022-09-30T01:26:57;10;9;
73565;PMS5003;61846;52.970;-3.168;2022-09-30T01:29:26;8;7;
73565;PMS5003;61846;52.970;-3.168;2022-09-30T01:31:47;8;8;
73565;PMS5003;61846;52.970;-3.168;2022-09-30T01:34:13;5;5;
73565;PMS5003;61846;52.970;-3.168;2022-09-30T01:36:39;8;8;
73565;PMS5003;61846;52.970;-3.168;2022-09-30T01:39:05;4;4;
73565;PMS5003;61846;52.970;-3.168;2022-09-30T01:41:30;7;7;
73565;PMS5003;61846;52.970;-3.168;2022-09-30T01:43:55;6;6;
73565;PMS5003;61846;52.970;-3.168;2022-09-30T01:46:21;7;7;
73565;PMS5003;61846;52.970;-3.168;2022-09-30T01:48:45;7;7;
73565;PMS5003;61846;52.970;-3.168;2022-09-30T01:51:10;6;6;
73565;PMS5003;61846;52.970;-3.168;2022-09-30T01:53:36;8;7;
73565;PMS5003;61846;52.970;-3.168;2022-09-30T01:56:02;6;6;
73565;PMS5003;61846;52.970;-3.168;2022-09-30T01:58:32;8;7;
73565;PMS5003;61846;52.970;-3.168;2022-09-30T02:00:52;7;7;
73565;PMS5003;61846;52.970;-3.168;2022-09-30T02:03:17;7;7;
73565;PMS5003;61846;52.970;-3.168;2022-09-30T02:05:43;10;5;
73565;PMS5003;61846;52.970;-3.168;2022-09-30T02:08:09;8;8;
73565;PMS5003;61846;52.970;-3.168;2022-09-30T02:10:34;8;7;
73565;PMS5003;61846;52.970;-3.168;2022-09-30T02:13:01;7;6;
73565;PMS5003;61846;52.970;-3.168;2022-09-30T02:15:24;7;6;
73565;PMS5003;61846;52.970;-3.168;2022-09-30T02:17:50;7;6;
73565;PMS5003;61846;52.970;-3.168;2022-09-30T02:20:16;8;7;
73565;PMS5003;61846;52.970;-3.168;2022-09-30T02:22:41;5;5;
73565;PMS5003;61846;52.970;-3.168;2022-09-30T02:25:06;4;3;
73565;PMS5003;61846;52.970;-3.168;2022-09-30T02:27:32;7;7;
73565;PMS5003;61846;52.970;-3.168;2022-09-30T02:29:58;5;5;
73565;PMS5003;61846;52.970;-3.168;2022-09-30T02:32:23;9;8;
73565;PMS5003;61846;52.970;-3.168;2022-09-30T02:34:49;5;5;
73565;PMS5003;61846;52.970;-3.168;2022-09-30T02:37:15;8;7;
73565;PMS5003;61846;52.970;-3.168;2022-09-30T02:39:40;6;6;
73565;PMS5003;61846;52.970;-3.168;2022-09-30T02:42:06;5;5;
73565;PMS5003;61846;52.970;-3.168;2022-09-30T02:44:30;7;7;
73565;PMS5003;61846;52.970;-3.168;2022-09-30T02:46:56;5;5;
73565;PMS5003;61846;52.970;-3.168;2022-09-30T02:49:22;7;5;
73565;PMS5003;61846;52.970;-3.168;2022-09-30T02:51:51;8;8;
73565;PMS5003;61846;52.970;-3.168;2022-09-30T02:54:15;8;6;
73565;PMS5003;61846;52.970;-3.168;2022-09-30T02:56:39;8;7;
73565;PMS5003;61846;52.970;-3.168;2022-09-30T02:59:03;7;7;
73565;PMS5003;61846;52.970;-3.168;2022-09-30T03:01:29;7;7;
73565;PMS5003;61846;52.970;-3.168;2022-09-30T03:03:55;6;6;
73565;PMS5003;61846;52.970;-3.168;2022-09-30T03:06:20;7;5;
73565;PMS5003;61846;52.970;-3.168;2022-09-30T03:08:45;10;6;
73565;PMS5003;61846;52.970;-3.168;2022-09-30T03:11:11;11;7;
73565;PMS5003;61846;52.970;-3.168;2022-09-30T03:16:05;8;7;
73565;PMS5003;61846;52.970;-3.168;2022-09-30T03:18:32;7;7;
73565;PMS5003;61846;52.970;-3.168;2022-09-30T03:20:57;4;4;
73565;PMS5003;61846;52.970;-3.168;2022-09-30T03:23:25;9;6;
73565;PMS5003;61846;52.970;-3.168;2022-09-30T03:25:46;9;7;
73565;PMS5003;61846;52.970;-3.168;2022-09-30T03:28:13;6;6;
73565;PMS5003;61846;52.970;-3.168;2022-09-30T03:30:37;6;6;
73565;PMS5003;61846;52.970;-3.168;2022-09-30T03:33:05;9;7;
73565;PMS5003;61846;52.970;-3.168;2022-09-30T03:35:28;7;7;
73565;PMS5003;61846;52.970;-3.168;2022-09-30T03:37:55;9;9;
73565;PMS5003;61846;52.970;-3.168;2022-09-30T03:40:21;4;4;
73565;PMS5003;61846;52.970;-3.168;2022-09-30T03:42:44;7;6;
73565;PMS5003;61846;52.970;-3.168;2022-09-30T03:45:10;7;7;
73565;PMS5003;61846;52.970;-3.168;2022-09-30T03:47:36;8;6;
73565;PMS5003;61846;52.970;-3.168;2022-09-30T03:50:02;7;7;
73565;PMS5003;61846;52.970;-3.168;2022-09-30T03:52:26;6;6;
73565;PMS5003;61846;52.970;-3.168;2022-09-30T03:54:52;6;6;
73565;PMS5003;61846;52.970;-3.168;2022-09-30T03:57:17;6;5;
73565;PMS5003;61846;52.970;-3.168;2022-09-30T03:59:43;5;5;
73565;PMS5003;61846;52.970;-3.168;2022-09-30T04:02:08;6;6;
73565;PMS5003;61846;52.970;-3.168;2022-09-30T04:04:34;5;5;
73565;PMS5003;61846;52.970;-3.168;2022-09-30T04:06:59;8;6;
73565;PMS5003;61846;52.970;-3.168;2022-09-30T04:09:25;5;5;
73565;PMS5003;61846;52.970;-3.168;2022-09-30T04:11:50;8;8;
73565;PMS5003;61846;52.970;-3.168;2022-09-30T04:14:16;7;7;
73565;PMS5003;61846;52.970;-3.168;2022-09-30T04:16:42;8;7;
73565;PMS5003;61846;52.970;-3.168;2022-09-30T04:19:07;7;6;
73565;PMS5003;61846;52.970;-3.168;2022-09-30T04:21:33;6;6;
73565;PMS5003;61846;52.970;-3.168;2022-09-30T04:23:58;6;5;
73565;PMS5003;61846;52.970;-3.168;2022-09-30T04:26:24;9;8;
73565;PMS5003;61846;52.970;-3.168;2022-09-30T04:28:51;4;4;
73565;PMS5003;61846;52.970;-3.168;2022-09-30T04:31:15;8;7;
73565;PMS5003;61846;52.970;-3.168;2022-09-30T04:33:41;8;7;
73565;PMS5003;61846;52.970;-3.168;2022-09-30T04:36:06;6;5;
73565;PMS5003;61846;52.970;-3.168;2022-09-30T04:38:32;7;5;
73565;PMS5003;61846;52.970;-3.168;2022-09-30T04:41:00;7;7;
73565;PMS5003;61846;52.970;-3.168;2022-09-30T04:43:23;8;7;
73565;PMS5003;61846;52.970;-3.168;2022-09-30T04:45:49;6;6;
73565;PMS5003;61846;52.970;-3.168;2022-09-30T04:48:15;9;7;
73565;PMS5003;61846;52.970;-3.168;2022-09-30T04:50:40;11;9;
73565;PMS5003;61846;52.970;-3.168;2022-09-30T04:53:06;10;8;
73565;PMS5003;61846;52.970;-3.168;2022-09-30T04:55:31;6;6;
73565;PMS5003;61846;52.970;-3.168;2022-09-30T04:57:56;7;7;
73565;PMS5003;61846;52.970;-3.168;2022-09-30T05:00:22;10;8;
73565;PMS5003;61846;52.970;-3.168;2022-09-30T05:02:47;11;8;
73565;PMS5003;61846;52.970;-3.168;2022-09-30T05:05:13;10;7;
73565;PMS5003;61846;52.970;-3.168;2022-09-30T05:07:38;6;6;
73565;PMS5003;61846;52.970;-3.168;2022-09-30T05:10:04;7;7;
73565;PMS5003;61846;52.970;-3.168;2022-09-30T05:12:29;7;7;
73565;PMS5003;61846;52.970;-3.168;2022-09-30T05:14:55;8;7;
73565;PMS5003;61846;52.970;-3.168;2022-09-30T05:17:20;12;6;
73565;PMS5003;61846;52.970;-3.168;2022-09-30T05:19:45;9;8;
73565;PMS5003;61846;52.970;-3.168;2022-09-30T05:22:10;7;7;
73565;PMS5003;61846;52.970;-3.168;2022-09-30T05:24:36;5;5;
73565;PMS5003;61846;52.970;-3.168;2022-09-30T05:27:02;10;9;
73565;PMS5003;61846;52.970;-3.168;2022-09-30T05:29:27;5;5;
73565;PMS5003;61846;52.970;-3.168;2022-09-30T05:31:53;6;6;
73565;PMS5003;61846;52.970;-3.168;2022-09-30T05:34:18;6;4;
73565;PMS5003;61846;52.970;-3.168;2022-09-30T05:36:44;4;4;
73565;PMS5003;61846;52.970;-3.168;2022-09-30T05:39:09;4;4;
73565;PMS5003;61846;52.970;-3.168;2022-09-30T05:41:35;7;5;
73565;PMS5003;61846;52.970;-3.168;2022-09-30T05:44:00;10;6;
73565;PMS5003;61846;52.970;-3.168;2022-09-30T05:46:26;5;5;
73565;PMS5003;61846;52.970;-3.168;2022-09-30T05:48:52;7;4;
73565;PMS5003;61846;52.970;-3.168;2022-09-30T05:51:17;6;6;
73565;PMS5003;61846;52.970;-3.168;2022-09-30T05:53:42;6;5;
73565;PMS5003;61846;52.970;-3.168;2022-09-30T05:56:08;4;4;
73565;PMS5003;61846;52.970;-3.168;2022-09-30T05:58:33;5;5;
73565;PMS5003;61846;52.970;-3.168;2022-09-30T06:01:02;7;4;
73565;PMS5003;61846;52.970;-3.168;2022-09-30T06:03:25;4;4;
73565;PMS5003;61846;52.970;-3.168;2022-09-30T06:05:54;6;4;
73565;PMS5003;61846;52.970;-3.168;2022-09-30T06:08:15;5;5;
73565;PMS5003;61846;52.970;-3.168;2022-09-30T06:10:41;7;6;
73565;PMS5003;61846;52.970;-3.168;2022-09-30T06:13:06;5;5;
73565;PMS5003;61846;52.970;-3.168;2022-09-30T06:15:32;5;3;
73565;PMS5003;61846;52.970;-3.168;2022-09-30T06:17:57;6;5;
73565;PMS5003;61846;52.970;-3.168;2022-09-30T06:20:23;3;3;
73565;PMS5003;61846;52.970;-3.168;2022-09-30T06:22:48;5;5;
73565;PMS5003;61846;52.970;-3.168;2022-09-30T06:25:14;4;4;
73565;PMS5003;61846;52.970;-3.168;2022-09-30T06:27:42;4;4;
73565;PMS5003;61846;52.970;-3.168;2022-09-30T06:30:05;7;5;
73565;PMS5003;61846;52.970;-3.168;2022-09-30T06:32:31;8;5;
73565;PMS5003;61846;52.970;-3.168;2022-09-30T06:34:56;6;6;
73565;PMS5003;61846;52.970;-3.168;2022-09-30T06:37:22;6;4;
73565;PMS5003;61846;52.970;-3.168;2022-09-30T06:39:47;4;4;
73565;PMS5003;61846;52.970;-3.168;2022-09-30T06:42:12;9;5;
73565;PMS5003;61846;52.970;-3.168;2022-09-30T06:44:38;5;5;
73565;PMS5003;61846;52.970;-3.168;2022-09-30T06:47:03;8;6;
73565;PMS5003;61846;52.970;-3.168;2022-09-30T06:49:29;5;5;
73565;PMS5003;61846;52.970;-3.168;2022-09-30T06:51:55;4;4;
73565;PMS5003;61846;52.970;-3.168;2022-09-30T06:54:20;6;6;
73565;PMS5003;61846;52.970;-3.168;2022-09-30T06:56:45;6;5;
73565;PMS5003;61846;52.970;-3.168;2022-09-30T06:59:11;7;6;
73565;PMS5003;61846;52.970;-3.168;2022-09-30T07:01:36;4;4;
73565;PMS5003;61846;52.970;-3.168;2022-09-30T07:04:02;5;5;
73565;PMS5003;61846;52.970;-3.168;2022-09-30T07:06:27;5;5;
73565;PMS5003;61846;52.970;-3.168;2022-09-30T07:08:53;7;6;
73565;PMS5003;61846;52.970;-3.168;2022-09-30T07:11:18;8;8;
73565;PMS5003;61846;52.970;-3.168;2022-09-30T07:13:44;6;4;
73565;PMS5003;61846;52.970;-3.168;2022-09-30T07:16:09;6;6;
73565;PMS5003;61846;52.970;-3.168;2022-09-30T07:18:35;7;7;
73565;PMS5003;61846;52.970;-3.168;2022-09-30T07:21:00;8;6;
73565;PMS5003;61846;52.970;-3.168;2022-09-30T07:23:26;7;7;
73565;PMS5003;61846;52.970;-3.168;2022-09-30T07:25:51;7;7;
73565;PMS5003;61846;52.970;-3.168;2022-09-30T07:28:17;7;7;
73565;PMS5003;61846;52.970;-3.168;2022-09-30T07:30:42;7;6;
73565;PMS5003;61846;52.970;-3.168;2022-09-30T07:33:08;8;6;
73565;PMS5003;61846;52.970;-3.168;2022-09-30T07:35:33;5;5;
73565;PMS5003;61846;52.970;-3.168;2022-09-30T07:37:59;8;6;
73565;PMS5003;61846;52.970;-3.168;2022-09-30T07:40:24;8;8;
73565;PMS5003;61846;52.970;-3.168;2022-09-30T07:42:50;7;7;
73565;PMS5003;61846;52.970;-3.168;2022-09-30T07:45:15;8;8;
73565;PMS5003;61846;52.970;-3.168;2022-09-30T07:47:40;7;6;
73565;PMS5003;61846;52.970;-3.168;2022-09-30T07:50:06;9;6;
73565;PMS5003;61846;52.970;-3.168;2022-09-30T07:52:31;5;5;
73565;PMS5003;61846;52.970;-3.168;2022-09-30T07:54:57;5;5;
73565;PMS5003;61846;52.970;-3.168;2022-09-30T07:57:22;9;7;
73565;PMS5003;61846;52.970;-3.168;2022-09-30T07:59:48;6;6;
73565;PMS5003;61846;52.970;-3.168;2022-09-30T08:02:14;7;5;
73565;PMS5003;61846;52.970;-3.168;2022-09-30T08:04:39;9;9;
73565;PMS5003;61846;52.970;-3.168;2022-09-30T08:07:04;5;5;
73565;PMS5003;61846;52.970;-3.168;2022-09-30T08:09:30;10;9;
73565;PMS5003;61846;52.970;-3.168;2022-09-30T08:11:55;6;6;
73565;PMS5003;61846;52.970;-3.168;2022-09-30T08:14:21;6;5;
73565;PMS5003;61846;52.970;-3.168;2022-09-30T08:16:46;8;6;
73565;PMS5003;61846;52.970;-3.168;2022-09-30T08:19:12;10;7;
73565;PMS5003;61846;52.970;-3.168;2022-09-30T08:21:37;7;7;
73565;PMS5003;61846;52.970;-3.168;2022-09-30T08:24:03;6;5;
73565;PMS5003;61846;52.970;-3.168;2022-09-30T08:26:28;8;6;
73565;PMS5003;61846;52.970;-3.168;2022-09-30T08:28:54;6;6;
73565;PMS5003;61846;52.970;-3.168;2022-09-30T08:31:21;6;6;
73565;PMS5003;61846;52.970;-3.168;2022-09-30T08:33:45;7;6;
73565;PMS5003;61846;52.970;-3.168;2022-09-30T08:36:11;9;8;
73565;PMS5003;61846;52.970;-3.168;2022-09-30T08:38:36;8;7;
73565;PMS5003;61846;52.970;-3.168;2022-09-30T08:41:06;8;6;
73565;PMS5003;61846;52.970;-3.168;2022-09-30T08:43:29;4;4;
73565;PMS5003;61846;52.970;-3.168;2022-09-30T08:45:55;4;4;
73565;PMS5003;61846;52.970;-3.168;2022-09-30T08:48:21;3;3;
73565;PMS5003;61846;52.970;-3.168;2022-09-30T08:50:46;6;6;
73565;PMS5003;61846;52.970;-3.168;2022-09-30T08:53:10;4;4;
73565;PMS5003;61846;52.970;-3.168;2022-09-30T08:55:37;3;3;
73565;PMS5003;61846;52.970;-3.168;2022-09-30T08:58:00;5;4;
73565;PMS5003;61846;52.970;-3.168;2022-09-30T09:00:25;6;5;
73565;PMS5003;61846;52.970;-3.168;2022-09-30T09:02:52;7;6;
73565;PMS5003;61846;52.970;-3.168;2022-09-30T09:05:19;7;7;
73565;PMS5003;61846;52.970;-3.168;2022-09-30T09:07:44;5;5;
73565;PMS5003;61846;52.970;-3.168;2022-09-30T09:10:12;2;2;
73565;PMS5003;61846;52.970;-3.168;2022-09-30T09:12:35;5;5;
73565;PMS5003;61846;52.970;-3.168;2022-09-30T09:15:02;6;5;
73565;PMS5003;61846;52.970;-3.168;2022-09-30T09:17:26;7;5;
73565;PMS5003;61846;52.970;-3.168;2022-09-30T09:19:52;6;6;
73565;PMS5003;61846;52.970;-3.168;2022-09-30T09:22:14;9;8;
73565;PMS5003;61846;52.970;-3.168;2022-09-30T09:24:40;7;6;
73565;PMS5003;61846;52.970;-3.168;2022-09-30T09:29:35;5;5;
73565;PMS5003;61846;52.970;-3.168;2022-09-30T09:31:56;3;3;
73565;PMS5003;61846;52.970;-3.168;2022-09-30T09:34:23;4;4;
73565;PMS5003;61846;52.970;-3.168;2022-09-30T09:36:51;5;4;
73565;PMS5003;61846;52.970;-3.168;2022-09-30T09:39:18;3;3;
73565;PMS5003;61846;52.970;-3.168;2022-09-30T09:41:40;1;1;
73565;PMS5003;61846;52.970;-3.168;2022-09-30T09:44:05;4;4;
73565;PMS5003;61846;52.970;-3.168;2022-09-30T09:46:30;5;4;
73565;PMS5003;61846;52.970;-3.168;2022-09-30T09:51:21;3;3;
73565;PMS5003;61846;52.970;-3.168;2022-09-30T09:53:46;2;2;
73565;PMS5003;61846;52.970;-3.168;2022-09-30T09:56:12;2;1;
73565;PMS5003;61846;52.970;-3.168;2022-09-30T09:58:37;4;3;
73565;PMS5003;61846;52.970;-3.168;2022-09-30T10:01:09;4;4;
73565;PMS5003;61846;52.970;-3.168;2022-09-30T10:03:27;4;2;
73565;PMS5003;61846;52.970;-3.168;2022-09-30T10:06:00;3;3;
73565;PMS5003;61846;52.970;-3.168;2022-09-30T10:08:19;4;4;
73565;PMS5003;61846;52.970;-3.168;2022-09-30T10:10:48;2;2;
73565;PMS5003;61846;52.970;-3.168;2022-09-30T10:13:13;3;3;
73565;PMS5003;61846;52.970;-3.168;2022-09-30T10:15:40;2;2;
73565;PMS5003;61846;52.970;-3.168;2022-09-30T10:18:01;2;2;
73565;PMS5003;61846;52.970;-3.168;2022-09-30T10:20:27;2;2;
73565;PMS5003;61846;52.970;-3.168;2022-09-30T10:25:19;3;3;
73565;PMS5003;61846;52.970;-3.168;2022-09-30T10:27:49;1;1;
73565;PMS5003;61846;52.970;-3.168;2022-09-30T10:30:08;3;2;
73565;PMS5003;61846;52.970;-3.168;2022-09-30T10:32:33;4;3;
73565;PMS5003;61846;52.970;-3.168;2022-09-30T10:35:00;5;4;
73565;PMS5003;61846;52.970;-3.168;2022-09-30T10:37:25;2;0;
73565;PMS5003;61846;52.970;-3.168;2022-09-30T10:39:51;6;1;
73565;PMS5003;61846;52.970;-3.168;2022-09-30T10:42:16;2;2;
73565;PMS5003;61846;52.970;-3.168;2022-09-30T10:44:41;2;0;
73565;PMS5003;61846;52.970;-3.168;2022-09-30T10:47:06;2;2;
73565;PMS5003;61846;52.970;-3.168;2022-09-30T10:49:33;1;1;
73565;PMS5003;61846;52.970;-3.168;2022-09-30T10:51:57;3;2;
73565;PMS5003;61846;52.970;-3.168;2022-09-30T10:54:32;3;1;
73565;PMS5003;61846;52.970;-3.168;2022-09-30T10:56:48;3;2;
73565;PMS5003;61846;52.970;-3.168;2022-09-30T10:59:24;2;1;
73565;PMS5003;61846;52.970;-3.168;2022-09-30T11:01:40;2;2;
73565;PMS5003;61846;52.970;-3.168;2022-09-30T11:04:06;2;2;
73565;PMS5003;61846;52.970;-3.168;2022-09-30T11:06:31;1;1;
73565;PMS5003;61846;52.970;-3.168;2022-09-30T11:08:56;2;2;
73565;PMS5003;61846;52.970;-3.168;2022-09-30T11:11:23;2;2;
73565;PMS5003;61846;52.970;-3.168;2022-09-30T11:13:48;3;3;
73565;PMS5003;61846;52.970;-3.168;2022-09-30T11:16:14;1;1;
73565;PMS5003;61846;52.970;-3.168;2022-09-30T11:18:40;5;4;
73565;PMS5003;61846;52.970;-3.168;2022-09-30T11:21:04;0;0;
73565;PMS5003;61846;52.970;-3.168;2022-09-30T11:23:29;3;3;
73565;PMS5003;61846;52.970;-3.168;2022-09-30T11:25:56;3;2;
73565;PMS5003;61846;52.970;-3.168;2022-09-30T11:28:25;1;1;
73565;PMS5003;61846;52.970;-3.168;2022-09-30T11:30:47;3;1;
73565;PMS5003;61846;52.970;-3.168;2022-09-30T11:33:15;6;6;
73565;PMS5003;61846;52.970;-3.168;2022-09-30T11:35:42;1;1;
73565;PMS5003;61846;52.970;-3.168;2022-09-30T11:38:09;1;1;
73565;PMS5003;61846;52.970;-3.168;2022-09-30T11:40:29;5;2;
73565;PMS5003;61846;52.970;-3.168;2022-09-30T11:42:54;5;2;
73565;PMS5003;61846;52.970;-3.168;2022-09-30T11:45:22;1;1;
73565;PMS5003;61846;52.970;-3.168;2022-09-30T11:47:47;1;1;
73565;PMS5003;61846;52.970;-3.168;2022-09-30T11:52:37;1;1;
73565;PMS5003;61846;52.970;-3.168;2022-09-30T11:55:05;4;1;
73565;PMS5003;61846;52.970;-3.168;2022-09-30T11:57:27;1;1;
73565;PMS5003;61846;52.970;-3.168;2022-09-30T11:59:52;3;2;
73565;PMS5003;61846;52.970;-3.168;2022-09-30T12:02:25;17;16;
73565;PMS5003;61846;52.970;-3.168;2022-09-30T12:04:42;1;1;
73565;PMS5003;61846;52.970;-3.168;2022-09-30T12:07:09;0;0;
73565;PMS5003;61846;52.970;-3.168;2022-09-30T12:09:36;0;0;
73565;PMS5003;61846;52.970;-3.168;2022-09-30T12:12:00;1;0;
73565;PMS5003;61846;52.970;-3.168;2022-09-30T12:14:26;0;0;
73565;PMS5003;61846;52.970;-3.168;2022-09-30T12:16:50;1;1;
73565;PMS5003;61846;52.970;-3.168;2022-09-30T12:19:17;1;1;
73565;PMS5003;61846;52.970;-3.168;2022-09-30T12:21:44;0;0;
73565;PMS5003;61846;52.970;-3.168;2022-09-30T12:24:08;1;1;
73565;PMS5003;61846;52.970;-3.168;2022-09-30T12:26:32;2;0;
73565;PMS5003;61846;52.970;-3.168;2022-09-30T12:28:59;0;0;
73565;PMS5003;61846;52.970;-3.168;2022-09-30T12:31:29;0;0;
73565;PMS5003;61846;52.970;-3.168;2022-09-30T12:33:52;0;0;
73565;PMS5003;61846;52.970;-3.168;2022-09-30T12:36:21;4;3;
73565;PMS5003;61846;52.970;-3.168;2022-09-30T12:38:46;2;0;
73565;PMS5003;61846;52.970;-3.168;2022-09-30T12:41:08;0;0;
73565;PMS5003;61846;52.970;-3.168;2022-09-30T12:46:00;0;0;
73565;PMS5003;61846;52.970;-3.168;2022-09-30T12:48:22;0;0;
73565;PMS5003;61846;52.970;-3.168;2022-09-30T12:50:47;0;0;
73565;PMS5003;61846;52.970;-3.168;2022-09-30T12:53:14;0;0;
73565;PMS5003;61846;52.970;-3.168;2022-09-30T12:55:38;0;0;
73565;PMS5003;61846;52.970;-3.168;2022-09-30T12:58:03;0;0;
73565;PMS5003;61846;52.970;-3.168;2022-09-30T13:00:29;0;0;
73565;PMS5003;61846;52.970;-3.168;2022-09-30T13:02:54;0;0;
73565;PMS5003;61846;52.970;-3.168;2022-09-30T13:12:40;0;0;
73565;PMS5003;61846;52.970;-3.168;2022-09-30T13:17:27;0;0;
73565;PMS5003;61846;52.970;-3.168;2022-09-30T13:19:53;0;0;
73565;PMS5003;61846;52.970;-3.168;2022-09-30T13:27:12;0;0;
73565;PMS5003;61846;52.970;-3.168;2022-09-30T13:29:35;0;0;
73565;PMS5003;61846;52.970;-3.168;2022-09-30T13:32:01;1;0;
73565;PMS5003;61846;52.970;-3.168;2022-09-30T13:34:26;0;0;
73565;PMS5003;61846;52.970;-3.168;2022-09-30T13:36:56;0;0;
73565;PMS5003;61846;52.970;-3.168;2022-09-30T13:39:18;0;0;
73565;PMS5003;61846;52.970;-3.168;2022-09-30T13:41:41;0;0;
73565;PMS5003;61846;52.970;-3.168;2022-09-30T13:44:07;0;0;
73565;PMS5003;61846;52.970;-3.168;2022-09-30T13:46:33;1;1;
73565;PMS5003;61846;52.970;-3.168;2022-09-30T13:48:59;0;0;
73565;PMS5003;61846;52.970;-3.168;2022-09-30T13:51:24;0;0;
73565;PMS5003;61846;52.970;-3.168;2022-09-30T13:53:49;1;1;
73565;PMS5003;61846;52.970;-3.168;2022-09-30T13:56:16;0;0;
73565;PMS5003;61846;52.970;-3.168;2022-09-30T13:58:43;0;0;
73565;PMS5003;61846;52.970;-3.168;2022-09-30T14:01:07;1;1;
73565;PMS5003;61846;52.970;-3.168;2022-09-30T14:03:36;1;1;
73565;PMS5003;61846;52.970;-3.168;2022-09-30T14:06:00;0;0;
73565;PMS5003;61846;52.970;-3.168;2022-09-30T14:13:17;0;0;
73565;PMS5003;61846;52.970;-3.168;2022-09-30T14:15:43;0;0;
73565;PMS5003;61846;52.970;-3.168;2022-09-30T14:18:09;1;1;
73565;PMS5003;61846;52.970;-3.168;2022-09-30T14:20:32;0;0;
73565;PMS5003;61846;52.970;-3.168;2022-09-30T14:22:55;0;0;
73565;PMS5003;61846;52.970;-3.168;2022-09-30T14:25:20;2;0;
73565;PMS5003;61846;52.970;-3.168;2022-09-30T14:27:49;0;0;
73565;PMS5003;61846;52.970;-3.168;2022-09-30T14:30:12;2;2;
73565;PMS5003;61846;52.970;-3.168;2022-09-30T14:32:39;0;0;
73565;PMS5003;61846;52.970;-3.168;2022-09-30T14:35:03;0;0;
73565;PMS5003;61846;52.970;-3.168;2022-09-30T14:37:29;0;0;
73565;PMS5003;61846;52.970;-3.168;2022-09-30T14:39:53;0;0;
73565;PMS5003;61846;52.970;-3.168;2022-09-30T14:42:20;0;0;
73565;PMS5003;61846;52.970;-3.168;2022-09-30T14:44:44;0;0;
73565;PMS5003;61846;52.970;-3.168;2022-09-30T14:47:11;0;0;
73565;PMS5003;61846;52.970;-3.168;2022-09-30T14:49:35;0;0;
73565;PMS5003;61846;52.970;-3.168;2022-09-30T14:52:00;0;0;
73565;PMS5003;61846;52.970;-3.168;2022-09-30T14:54:26;0;0;
73565;PMS5003;61846;52.970;-3.168;2022-09-30T14:56:51;0;0;
73565;PMS5003;61846;52.970;-3.168;2022-09-30T14:59:17;0;0;
73565;PMS5003;61846;52.970;-3.168;2022-09-30T15:01:42;1;0;
73565;PMS5003;61846;52.970;-3.168;2022-09-30T15:04:10;0;0;
73565;PMS5003;61846;52.970;-3.168;2022-09-30T15:06:34;0;0;
73565;PMS5003;61846;52.970;-3.168;2022-09-30T15:08:59;0;0;
73565;PMS5003;61846;52.970;-3.168;2022-09-30T15:11:24;0;0;
73565;PMS5003;61846;52.970;-3.168;2022-09-30T15:13:50;0;0;
73565;PMS5003;61846;52.970;-3.168;2022-09-30T15:16:23;0;0;
73565;PMS5003;61846;52.970;-3.168;2022-09-30T15:18:42;0;0;
73565;PMS5003;61846;52.970;-3.168;2022-09-30T15:21:07;1;1;
73565;PMS5003;61846;52.970;-3.168;2022-09-30T15:23:31;0;0;
73565;PMS5003;61846;52.970;-3.168;2022-09-30T15:25:56;2;2;
73565;PMS5003;61846;52.970;-3.168;2022-09-30T15:28:22;0;0;
73565;PMS5003;61846;52.970;-3.168;2022-09-30T15:30:47;0;0;
73565;PMS5003;61846;52.970;-3.168;2022-09-30T15:33:13;0;0;
73565;PMS5003;61846;52.970;-3.168;2022-09-30T15:35:38;0;0;
73565;PMS5003;61846;52.970;-3.168;2022-09-30T15:38:05;3;3;
73565;PMS5003;61846;52.970;-3.168;2022-09-30T15:40:28;0;0;
73565;PMS5003;61846;52.970;-3.168;2022-09-30T15:42:55;0;0;
73565;PMS5003;61846;52.970;-3.168;2022-09-30T15:52:36;0;0;
73565;PMS5003;61846;52.970;-3.168;2022-09-30T15:55:01;0;0;
73565;PMS5003;61846;52.970;-3.168;2022-09-30T15:59:56;0;0;
73565;PMS5003;61846;52.970;-3.168;2022-09-30T16:02:17;0;0;
73565;PMS5003;61846;52.970;-3.168;2022-09-30T16:04:43;0;0;
73565;PMS5003;61846;52.970;-3.168;2022-09-30T16:07:08;0;0;
73565;PMS5003;61846;52.970;-3.168;2022-09-30T16:09:34;0;0;
73565;PMS5003;61846;52.970;-3.168;2022-09-30T16:12:01;1;1;
73565;PMS5003;61846;52.970;-3.168;2022-09-30T16:14:25;0;0;
73565;PMS5003;61846;52.970;-3.168;2022-09-30T16:16:50;0;0;
73565;PMS5003;61846;52.970;-3.168;2022-09-30T16:19:16;2;1;
73565;PMS5003;61846;52.970;-3.168;2022-09-30T16:21:42;2;0;
73565;PMS5003;61846;52.970;-3.168;2022-09-30T16:26:32;3;1;
73565;PMS5003;61846;52.970;-3.168;2022-09-30T16:28:57;3;2;
73565;PMS5003;61846;52.970;-3.168;2022-09-30T16:31:22;3;2;
73565;PMS5003;61846;52.970;-3.168;2022-09-30T16:33:47;3;3;
73565;PMS5003;61846;52.970;-3.168;2022-09-30T16:36:13;2;2;
73565;PMS5003;61846;52.970;-3.168;2022-09-30T16:38:38;4;3;
73565;PMS5003;61846;52.970;-3.168;2022-09-30T16:41:04;5;5;
73565;PMS5003;61846;52.970;-3.168;2022-09-30T16:43:29;16;14;
73565;PMS5003;61846;52.970;-3.168;2022-09-30T16:45:55;2;2;
73565;PMS5003;61846;52.970;-3.168;2022-09-30T16:48:20;12;6;
73565;PMS5003;61846;52.970;-3.168;2022-09-30T16:50:46;5;1;
73565;PMS5003;61846;52.970;-3.168;2022-09-30T16:53:10;4;3;
73565;PMS5003;61846;52.970;-3.168;2022-09-30T16:55:36;6;5;
73565;PMS5003;61846;52.970;-3.168;2022-09-30T16:58:01;0;0;
73565;PMS5003;61846;52.970;-3.168;2022-09-30T17:00:27;2;1;
73565;PMS5003;61846;52.970;-3.168;2022-09-30T17:02:52;7;4;
73565;PMS5003;61846;52.970;-3.168;2022-09-30T17:05:18;3;3;
73565;PMS5003;61846;52.970;-3.168;2022-09-30T17:07:43;5;2;